sensor_id;sensor_type;location;lat;lon;timestamp;pressure;altitude;pressure_sealevel;temperature;humidity
56176;BME280;63065;51.082;17.016;2023-04-06T00:00:50;100809.43;;;4.79;40.02
56176;BME280;63065;51.082;17.016;2023-04-06T00:03:15;100809.12;;;4.84;40.01
56176;BME280;63065;51.082;17.016;2023-04-06T00:05:40;100810.48;;;4.86;39.94
56176;BME280;63065;51.082;17.016;2023-04-06T00:08:06;100807.26;;;4.85;39.71
56176;BME280;63065;51.082;17.016;2023-04-06T00:10:31;100809.12;;;4.84;39.74
56176;BME280;63065;51.082;17.016;2023-04-06T00:12:58;100810.15;;;4.83;39.72
56176;BME280;63065;51.082;17.016;2023-04-06T00:15:23;100810.21;;;4.39;40.16
56176;BME280;63065;51.082;17.016;2023-04-06T00:17:48;100811.21;;;4.93;39.05
56176;BME280;63065;51.082;17.016;2023-04-06T00:20:14;100813.14;;;4.89;39.55
56176;BME280;63065;51.082;17.016;2023-04-06T00:22:39;100811.97;;;4.68;39.33
56176;BME280;63065;51.082;17.016;2023-04-06T00:25:05;100812.18;;;4.88;39.19
56176;BME280;63065;51.082;17.016;2023-04-06T00:27:29;100809.11;;;4.79;39.74
56176;BME280;63065;51.082;17.016;2023-04-06T00:29:55;100807.95;;;4.80;39.51
56176;BME280;63065;51.082;17.016;2023-04-06T00:32:20;100804.21;;;4.74;39.50
56176;BME280;63065;51.082;17.016;2023-04-06T00:34:45;100801.75;;;4.80;40.08
56176;BME280;63065;51.082;17.016;2023-04-06T00:37:11;100801.06;;;4.47;39.91
56176;BME280;63065;51.082;17.016;2023-04-06T00:39:36;100800.78;;;4.71;39.67
56176;BME280;63065;51.082;17.016;2023-04-06T00:42:07;100801.07;;;4.53;39.78
56176;BME280;63065;51.082;17.016;2023-04-06T00:44:27;100800.34;;;4.43;39.83
56176;BME280;63065;51.082;17.016;2023-04-06T00:46:52;100800.78;;;4.59;39.83
56176;BME280;63065;51.082;17.016;2023-04-06T00:49:18;100800.78;;;4.28;40.46
56176;BME280;63065;51.082;17.016;2023-04-06T00:51:44;100798.28;;;4.27;40.29
56176;BME280;63065;51.082;17.016;2023-04-06T00:54:09;100793.38;;;4.32;40.12
56176;BME280;63065;51.082;17.016;2023-04-06T00:56:35;100797.16;;;4.07;40.74
56176;BME280;63065;51.082;17.016;2023-04-06T00:58:59;100799.65;;;4.58;40.65
56176;BME280;63065;51.082;17.016;2023-04-06T01:01:25;100795.89;;;4.30;40.60
56176;BME280;63065;51.082;17.016;2023-04-06T01:03:50;100797.57;;;4.64;40.31
56176;BME280;63065;51.082;17.016;2023-04-06T01:06:16;100804.77;;;4.36;40.70
56176;BME280;63065;51.082;17.016;2023-04-06T01:08:41;100801.41;;;4.63;40.58
56176;BME280;63065;51.082;17.016;2023-04-06T01:11:06;100803.38;;;4.65;40.54
56176;BME280;63065;51.082;17.016;2023-04-06T01:13:31;100805.15;;;4.38;40.03
56176;BME280;63065;51.082;17.016;2023-04-06T01:15:57;100804.45;;;4.35;39.92
56176;BME280;63065;51.082;17.016;2023-04-06T01:18:26;100803.58;;;4.33;40.50
56176;BME280;63065;51.082;17.016;2023-04-06T01:20:48;100804.22;;;4.35;39.97
56176;BME280;63065;51.082;17.016;2023-04-06T01:23:13;100806.37;;;4.37;40.00
56176;BME280;63065;51.082;17.016;2023-04-06T01:25:39;100806.04;;;4.35;40.59
56176;BME280;63065;51.082;17.016;2023-04-06T01:28:04;100805.07;;;4.31;40.08
56176;BME280;63065;51.082;17.016;2023-04-06T01:30:29;100804.86;;;4.52;40.07
56176;BME280;63065;51.082;17.016;2023-04-06T01:32:54;100802.33;;;4.50;40.33
56176;BME280;63065;51.082;17.016;2023-04-06T01:35:20;100801.03;;;4.44;40.08
56176;BME280;63065;51.082;17.016;2023-04-06T01:37:46;100800.07;;;4.13;39.92
56176;BME280;63065;51.082;17.016;2023-04-06T01:40:12;100799.71;;;4.35;39.46
56176;BME280;63065;51.082;17.016;2023-04-06T01:42:37;100799.45;;;4.06;40.11
56176;BME280;63065;51.082;17.016;2023-04-06T01:45:03;100796.34;;;4.29;40.15
56176;BME280;63065;51.082;17.016;2023-04-06T01:47:28;100797.79;;;4.02;39.95
56176;BME280;63065;51.082;17.016;2023-04-06T01:49:53;100797.37;;;4.28;39.98
56176;BME280;63065;51.082;17.016;2023-04-06T01:52:19;100796.74;;;4.25;40.51
56176;BME280;63065;51.082;17.016;2023-04-06T01:54:43;100796.29;;;4.28;40.16
56176;BME280;63065;51.082;17.016;2023-04-06T01:57:10;100798.04;;;4.26;40.89
56176;BME280;63065;51.082;17.016;2023-04-06T01:59:34;100797.07;;;4.18;41.16
56176;BME280;63065;51.082;17.016;2023-04-06T02:02:00;100797.17;;;3.96;40.69
56176;BME280;63065;51.082;17.016;2023-04-06T02:04:25;100798.35;;;4.24;39.82
56176;BME280;63065;51.082;17.016;2023-04-06T02:06:50;100797.48;;;4.26;40.11
56176;BME280;63065;51.082;17.016;2023-04-06T02:09:16;100795.82;;;4.24;40.10
56176;BME280;63065;51.082;17.016;2023-04-06T02:11:41;100795.36;;;3.93;39.82
56176;BME280;63065;51.082;17.016;2023-04-06T02:14:07;100795.38;;;4.18;39.71
56176;BME280;63065;51.082;17.016;2023-04-06T02:16:33;100795.13;;;3.87;39.98
56176;BME280;63065;51.082;17.016;2023-04-06T02:18:58;100793.81;;;4.09;39.90
56176;BME280;63065;51.082;17.016;2023-04-06T02:21:24;100789.40;;;4.09;39.77
56176;BME280;63065;51.082;17.016;2023-04-06T02:23:49;100789.72;;;4.09;39.59
56176;BME280;63065;51.082;17.016;2023-04-06T02:26:14;100790.72;;;4.04;39.65
56176;BME280;63065;51.082;17.016;2023-04-06T02:28:40;100791.11;;;4.01;39.90
56176;BME280;63065;51.082;17.016;2023-04-06T02:31:05;100791.68;;;3.71;39.78
56176;BME280;63065;51.082;17.016;2023-04-06T02:33:30;100790.62;;;3.99;39.76
56176;BME280;63065;51.082;17.016;2023-04-06T02:35:56;100793.07;;;3.99;39.49
56176;BME280;63065;51.082;17.016;2023-04-06T02:38:22;100794.89;;;3.88;39.78
56176;BME280;63065;51.082;17.016;2023-04-06T02:40:47;100791.95;;;3.88;39.98
56176;BME280;63065;51.082;17.016;2023-04-06T02:43:13;100792.00;;;3.96;39.43
56176;BME280;63065;51.082;17.016;2023-04-06T02:45:38;100794.38;;;4.06;39.58
56176;BME280;63065;51.082;17.016;2023-04-06T02:48:04;100799.90;;;4.08;39.16
56176;BME280;63065;51.082;17.016;2023-04-06T02:50:29;100806.29;;;4.08;38.73
56176;BME280;63065;51.082;17.016;2023-04-06T02:52:55;100809.15;;;3.83;39.12
56176;BME280;63065;51.082;17.016;2023-04-06T02:55:21;100811.33;;;3.79;39.04
56176;BME280;63065;51.082;17.016;2023-04-06T02:57:46;100811.21;;;4.14;39.28
56176;BME280;63065;51.082;17.016;2023-04-06T03:00:12;100809.36;;;3.90;39.02
56176;BME280;63065;51.082;17.016;2023-04-06T03:02:37;100813.22;;;4.14;39.18
56176;BME280;63065;51.082;17.016;2023-04-06T03:05:02;100814.57;;;4.06;39.42
56176;BME280;63065;51.082;17.016;2023-04-06T03:07:27;100814.18;;;4.08;39.21
56176;BME280;63065;51.082;17.016;2023-04-06T03:09:53;100813.41;;;4.01;39.19
56176;BME280;63065;51.082;17.016;2023-04-06T03:12:18;100816.10;;;3.96;39.07
56176;BME280;63065;51.082;17.016;2023-04-06T03:14:43;100816.22;;;3.73;39.15
56176;BME280;63065;51.082;17.016;2023-04-06T03:17:09;100821.33;;;3.99;39.35
56176;BME280;63065;51.082;17.016;2023-04-06T03:19:34;100822.11;;;3.95;39.04
56176;BME280;63065;51.082;17.016;2023-04-06T03:22:01;100821.79;;;3.86;39.15
56176;BME280;63065;51.082;17.016;2023-04-06T03:24:26;100821.82;;;3.83;39.08
56176;BME280;63065;51.082;17.016;2023-04-06T03:26:51;100824.75;;;3.71;39.59
56176;BME280;63065;51.082;17.016;2023-04-06T03:29:17;100825.86;;;3.67;39.03
56176;BME280;63065;51.082;17.016;2023-04-06T03:31:42;100828.37;;;3.69;39.41
56176;BME280;63065;51.082;17.016;2023-04-06T03:34:07;100828.89;;;3.71;38.93
56176;BME280;63065;51.082;17.016;2023-04-06T03:36:34;100831.40;;;3.66;39.31
56176;BME280;63065;51.082;17.016;2023-04-06T03:38:58;100834.37;;;3.60;39.14
56176;BME280;63065;51.082;17.016;2023-04-06T03:41:23;100832.29;;;3.60;39.65
56176;BME280;63065;51.082;17.016;2023-04-06T03:43:49;100834.30;;;3.67;39.82
56176;BME280;63065;51.082;17.016;2023-04-06T03:46:14;100840.90;;;3.66;39.30
56176;BME280;63065;51.082;17.016;2023-04-06T03:48:40;100842.51;;;3.64;39.29
56176;BME280;63065;51.082;17.016;2023-04-06T03:51:06;100841.53;;;3.60;39.28
56176;BME280;63065;51.082;17.016;2023-04-06T03:53:31;100841.52;;;3.57;39.49
56176;BME280;63065;51.082;17.016;2023-04-06T03:55:56;100841.85;;;3.54;39.31
56176;BME280;63065;51.082;17.016;2023-04-06T03:58:22;100843.50;;;3.74;39.48
56176;BME280;63065;51.082;17.016;2023-04-06T04:00:47;100846.50;;;3.54;39.82
56176;BME280;63065;51.082;17.016;2023-04-06T04:03:13;100849.02;;;3.53;39.35
56176;BME280;63065;51.082;17.016;2023-04-06T04:05:38;100848.54;;;3.59;39.15
56176;BME280;63065;51.082;17.016;2023-04-06T04:08:03;100847.28;;;3.53;39.38
56176;BME280;63065;51.082;17.016;2023-04-06T04:10:28;100844.54;;;3.73;39.08
56176;BME280;63065;51.082;17.016;2023-04-06T04:12:54;100846.81;;;3.43;38.93
56176;BME280;63065;51.082;17.016;2023-04-06T04:15:19;100844.68;;;3.49;39.50
56176;BME280;63065;51.082;17.016;2023-04-06T04:17:44;100843.62;;;3.67;39.31
56176;BME280;63065;51.082;17.016;2023-04-06T04:20:11;100845.74;;;3.41;39.07
56176;BME280;63065;51.082;17.016;2023-04-06T04:22:36;100846.86;;;3.36;39.17
56176;BME280;63065;51.082;17.016;2023-04-06T04:25:01;100847.68;;;3.41;39.11
56176;BME280;63065;51.082;17.016;2023-04-06T04:27:26;100847.44;;;3.39;38.95
56176;BME280;63065;51.082;17.016;2023-04-06T04:29:52;100847.04;;;3.89;38.71
56176;BME280;63065;51.082;17.016;2023-04-06T04:32:18;100848.69;;;3.65;38.68
56176;BME280;63065;51.082;17.016;2023-04-06T04:34:44;100849.90;;;3.44;39.03
56176;BME280;63065;51.082;17.016;2023-04-06T04:37:09;100851.03;;;3.40;39.60
56176;BME280;63065;51.082;17.016;2023-04-06T04:39:35;100848.71;;;3.67;39.06
56176;BME280;63065;51.082;17.016;2023-04-06T04:42:00;100846.21;;;3.47;38.85
56176;BME280;63065;51.082;17.016;2023-04-06T04:44:25;100845.90;;;3.74;39.00
56176;BME280;63065;51.082;17.016;2023-04-06T04:46:51;100845.38;;;3.80;39.44
56176;BME280;63065;51.082;17.016;2023-04-06T04:49:16;100850.72;;;3.61;39.76
56176;BME280;63065;51.082;17.016;2023-04-06T04:51:41;100851.39;;;3.69;39.15
56176;BME280;63065;51.082;17.016;2023-04-06T04:54:07;100851.92;;;4.25;39.49
56176;BME280;63065;51.082;17.016;2023-04-06T04:56:32;100852.81;;;3.81;39.42
56176;BME280;63065;51.082;17.016;2023-04-06T04:58:58;100856.07;;;3.96;38.49
56176;BME280;63065;51.082;17.016;2023-04-06T05:01:23;100856.06;;;4.05;39.08
56176;BME280;63065;51.082;17.016;2023-04-06T05:03:49;100853.87;;;4.15;39.07
56176;BME280;63065;51.082;17.016;2023-04-06T05:06:14;100853.63;;;4.24;38.74
56176;BME280;63065;51.082;17.016;2023-04-06T05:08:39;100854.15;;;3.94;38.39
56176;BME280;63065;51.082;17.016;2023-04-06T05:11:04;100854.14;;;4.23;38.80
56176;BME280;63065;51.082;17.016;2023-04-06T05:13:30;100856.38;;;4.11;38.90
56176;BME280;63065;51.082;17.016;2023-04-06T05:15:55;100859.44;;;3.97;38.92
56176;BME280;63065;51.082;17.016;2023-04-06T05:18:21;100859.20;;;4.11;38.42
56176;BME280;63065;51.082;17.016;2023-04-06T05:20:47;100859.07;;;4.41;38.80
56176;BME280;63065;51.082;17.016;2023-04-06T05:23:12;100858.72;;;4.35;38.51
56176;BME280;63065;51.082;17.016;2023-04-06T05:25:37;100858.69;;;4.39;39.46
56176;BME280;63065;51.082;17.016;2023-04-06T05:28:03;100859.04;;;4.24;39.44
56176;BME280;63065;51.082;17.016;2023-04-06T05:30:28;100865.56;;;4.54;38.78
56176;BME280;63065;51.082;17.016;2023-04-06T05:32:54;100865.22;;;4.60;38.82
56176;BME280;63065;51.082;17.016;2023-04-06T05:35:19;100866.23;;;4.67;39.42
56176;BME280;63065;51.082;17.016;2023-04-06T05:37:46;100867.09;;;4.50;38.78
56176;BME280;63065;51.082;17.016;2023-04-06T05:40:11;100868.62;;;4.74;38.54
56176;BME280;63065;51.082;17.016;2023-04-06T05:42:36;100871.15;;;4.69;39.04
56176;BME280;63065;51.082;17.016;2023-04-06T05:45:02;100869.81;;;4.76;39.41
56176;BME280;63065;51.082;17.016;2023-04-06T05:47:27;100867.84;;;4.75;39.02
56176;BME280;63065;51.082;17.016;2023-04-06T05:49:53;100866.53;;;5.02;39.31
56176;BME280;63065;51.082;17.016;2023-04-06T05:52:18;100866.29;;;4.87;39.12
56176;BME280;63065;51.082;17.016;2023-04-06T05:54:43;100865.31;;;5.00;39.13
56176;BME280;63065;51.082;17.016;2023-04-06T05:57:09;100864.21;;;5.15;38.98
56176;BME280;63065;51.082;17.016;2023-04-06T05:59:34;100868.20;;;5.18;38.89
56176;BME280;63065;51.082;17.016;2023-04-06T06:02:00;100869.38;;;4.98;39.07
56176;BME280;63065;51.082;17.016;2023-04-06T06:04:26;100870.02;;;5.28;39.10
56176;BME280;63065;51.082;17.016;2023-04-06T06:06:51;100867.95;;;5.31;38.88
56176;BME280;63065;51.082;17.016;2023-04-06T06:09:16;100867.43;;;5.22;39.12
56176;BME280;63065;51.082;17.016;2023-04-06T06:11:42;100866.10;;;5.21;39.45
56176;BME280;63065;51.082;17.016;2023-04-06T06:14:07;100870.40;;;5.00;39.49
56176;BME280;63065;51.082;17.016;2023-04-06T06:16:32;100869.37;;;5.03;39.59
56176;BME280;63065;51.082;17.016;2023-04-06T06:18:58;100869.38;;;4.85;39.79
56176;BME280;63065;51.082;17.016;2023-04-06T06:21:23;100869.53;;;5.43;39.58
56176;BME280;63065;51.082;17.016;2023-04-06T06:23:49;100872.67;;;5.53;39.59
56176;BME280;63065;51.082;17.016;2023-04-06T06:26:14;100873.49;;;5.53;39.69
56176;BME280;63065;51.082;17.016;2023-04-06T06:28:39;100871.90;;;5.66;39.63
56176;BME280;63065;51.082;17.016;2023-04-06T06:31:05;100871.00;;;5.71;39.93
56176;BME280;63065;51.082;17.016;2023-04-06T06:33:30;100867.75;;;5.46;39.74
56176;BME280;63065;51.082;17.016;2023-04-06T06:35:56;100865.35;;;5.79;39.66
56176;BME280;63065;51.082;17.016;2023-04-06T06:38:22;100865.57;;;5.59;39.79
56176;BME280;63065;51.082;17.016;2023-04-06T06:40:47;100865.16;;;5.45;39.98
56176;BME280;63065;51.082;17.016;2023-04-06T06:43:13;100867.24;;;5.57;39.59
56176;BME280;63065;51.082;17.016;2023-04-06T06:45:38;100868.65;;;5.64;40.00
56176;BME280;63065;51.082;17.016;2023-04-06T06:48:04;100871.47;;;5.79;39.41
56176;BME280;63065;51.082;17.016;2023-04-06T06:50:29;100869.16;;;5.93;39.16
56176;BME280;63065;51.082;17.016;2023-04-06T06:52:55;100866.95;;;6.05;39.25
56176;BME280;63065;51.082;17.016;2023-04-06T06:55:20;100865.61;;;6.23;38.17
56176;BME280;63065;51.082;17.016;2023-04-06T06:57:46;100867.50;;;6.12;39.05
56176;BME280;63065;51.082;17.016;2023-04-06T07:00:13;100869.01;;;6.28;38.82
56176;BME280;63065;51.082;17.016;2023-04-06T07:02:37;100864.80;;;6.25;38.72
56176;BME280;63065;51.082;17.016;2023-04-06T07:05:03;100864.09;;;6.30;38.57
56176;BME280;63065;51.082;17.016;2023-04-06T07:07:28;100864.73;;;6.57;38.71
56176;BME280;63065;51.082;17.016;2023-04-06T07:09:53;100865.05;;;6.26;38.91
56176;BME280;63065;51.082;17.016;2023-04-06T07:12:19;100865.12;;;6.22;38.93
56176;BME280;63065;51.082;17.016;2023-04-06T07:14:45;100866.15;;;6.54;38.99
56176;BME280;63065;51.082;17.016;2023-04-06T07:17:10;100868.01;;;6.59;38.50
56176;BME280;63065;51.082;17.016;2023-04-06T07:19:36;100868.07;;;6.92;38.36
56176;BME280;63065;51.082;17.016;2023-04-06T07:22:02;100866.16;;;7.07;38.50
56176;BME280;63065;51.082;17.016;2023-04-06T07:24:29;100867.16;;;7.10;38.20
56176;BME280;63065;51.082;17.016;2023-04-06T07:26:53;100871.34;;;7.47;37.11
56176;BME280;63065;51.082;17.016;2023-04-06T07:29:19;100870.38;;;6.97;37.13
56176;BME280;63065;51.082;17.016;2023-04-06T07:31:45;100871.87;;;6.95;38.04
56176;BME280;63065;51.082;17.016;2023-04-06T07:36:36;100870.44;;;7.11;37.82
56176;BME280;63065;51.082;17.016;2023-04-06T07:39:01;100870.23;;;7.57;36.95
56176;BME280;63065;51.082;17.016;2023-04-06T07:41:27;100873.08;;;7.13;37.77
56176;BME280;63065;51.082;17.016;2023-04-06T07:43:53;100874.00;;;7.02;37.83
56176;BME280;63065;51.082;17.016;2023-04-06T07:46:18;100877.67;;;7.47;37.21
56176;BME280;63065;51.082;17.016;2023-04-06T07:48:44;100878.67;;;7.26;38.30
56176;BME280;63065;51.082;17.016;2023-04-06T07:51:09;100876.51;;;7.36;37.08
56176;BME280;63065;51.082;17.016;2023-04-06T07:53:34;100879.60;;;7.57;36.46
56176;BME280;63065;51.082;17.016;2023-04-06T07:56:00;100879.13;;;7.10;36.21
56176;BME280;63065;51.082;17.016;2023-04-06T07:58:25;100878.52;;;7.48;35.97
56176;BME280;63065;51.082;17.016;2023-04-06T08:00:50;100877.33;;;7.10;36.04
56176;BME280;63065;51.082;17.016;2023-04-06T08:03:16;100876.96;;;8.02;35.02
56176;BME280;63065;51.082;17.016;2023-04-06T08:05:41;100874.55;;;7.65;33.62
56176;BME280;63065;51.082;17.016;2023-04-06T08:08:07;100875.50;;;8.20;34.46
56176;BME280;63065;51.082;17.016;2023-04-06T08:10:32;100874.60;;;8.12;34.45
56176;BME280;63065;51.082;17.016;2023-04-06T08:12:58;100875.65;;;8.26;34.06
56176;BME280;63065;51.082;17.016;2023-04-06T08:15:23;100874.42;;;7.99;33.34
56176;BME280;63065;51.082;17.016;2023-04-06T08:17:49;100876.53;;;8.10;32.10
56176;BME280;63065;51.082;17.016;2023-04-06T08:20:14;100877.91;;;8.10;32.21
56176;BME280;63065;51.082;17.016;2023-04-06T08:22:39;100878.96;;;8.10;31.63
56176;BME280;63065;51.082;17.016;2023-04-06T08:25:06;100879.04;;;8.34;32.09
56176;BME280;63065;51.082;17.016;2023-04-06T08:27:30;100877.72;;;8.09;31.90
56176;BME280;63065;51.082;17.016;2023-04-06T08:29:56;100875.16;;;8.00;31.36
56176;BME280;63065;51.082;17.016;2023-04-06T08:32:22;100873.33;;;8.23;30.77
56176;BME280;63065;51.082;17.016;2023-04-06T08:34:47;100878.11;;;8.20;31.39
56176;BME280;63065;51.082;17.016;2023-04-06T08:37:12;100875.68;;;8.18;30.88
56176;BME280;63065;51.082;17.016;2023-04-06T08:39:37;100872.20;;;8.28;30.37
56176;BME280;63065;51.082;17.016;2023-04-06T08:42:03;100871.67;;;8.31;30.10
56176;BME280;63065;51.082;17.016;2023-04-06T08:44:28;100874.46;;;8.47;30.42
56176;BME280;63065;51.082;17.016;2023-04-06T08:46:53;100874.81;;;8.50;30.19
56176;BME280;63065;51.082;17.016;2023-04-06T08:49:19;100875.88;;;8.43;30.12
56176;BME280;63065;51.082;17.016;2023-04-06T08:51:44;100873.41;;;8.74;29.05
56176;BME280;63065;51.082;17.016;2023-04-06T08:54:10;100874.86;;;8.54;29.21
56176;BME280;63065;51.082;17.016;2023-04-06T08:56:38;100876.94;;;8.18;30.29
56176;BME280;63065;51.082;17.016;2023-04-06T08:59:01;100877.93;;;8.26;29.67
56176;BME280;63065;51.082;17.016;2023-04-06T09:01:27;100877.14;;;8.06;29.75
56176;BME280;63065;51.082;17.016;2023-04-06T09:03:52;100870.51;;;8.55;29.68
56176;BME280;63065;51.082;17.016;2023-04-06T09:06:17;100873.67;;;8.63;29.85
56176;BME280;63065;51.082;17.016;2023-04-06T09:08:42;100871.21;;;8.89;29.59
56176;BME280;63065;51.082;17.016;2023-04-06T09:11:08;100869.57;;;9.10;28.51
56176;BME280;63065;51.082;17.016;2023-04-06T09:15:59;100866.88;;;9.26;28.50
56176;BME280;63065;51.082;17.016;2023-04-06T09:18:28;100868.16;;;9.22;29.20
56176;BME280;63065;51.082;17.016;2023-04-06T09:20:56;100864.25;;;8.83;28.49
56176;BME280;63065;51.082;17.016;2023-04-06T09:23:18;100857.64;;;9.72;26.69
56176;BME280;63065;51.082;17.016;2023-04-06T09:25:39;100856.56;;;9.81;27.62
56176;BME280;63065;51.082;17.016;2023-04-06T09:28:05;100853.07;;;9.28;25.77
56176;BME280;63065;51.082;17.016;2023-04-06T09:30:31;100851.57;;;9.24;28.34
56176;BME280;63065;51.082;17.016;2023-04-06T09:32:57;100850.32;;;9.15;27.60
56176;BME280;63065;51.082;17.016;2023-04-06T09:35:23;100852.72;;;9.33;28.23
56176;BME280;63065;51.082;17.016;2023-04-06T09:37:47;100856.06;;;9.56;28.44
56176;BME280;63065;51.082;17.016;2023-04-06T09:40:13;100851.36;;;9.34;27.49
56176;BME280;63065;51.082;17.016;2023-04-06T09:42:37;100846.43;;;8.94;28.89
56176;BME280;63065;51.082;17.016;2023-04-06T09:45:03;100850.15;;;10.10;27.16
56176;BME280;63065;51.082;17.016;2023-04-06T09:47:28;100847.51;;;10.40;26.87
56176;BME280;63065;51.082;17.016;2023-04-06T09:49:56;100844.98;;;10.21;26.84
56176;BME280;63065;51.082;17.016;2023-04-06T09:52:19;100848.10;;;10.49;26.79
56176;BME280;63065;51.082;17.016;2023-04-06T09:54:45;100848.35;;;10.24;26.17
56176;BME280;63065;51.082;17.016;2023-04-06T09:57:15;100839.45;;;10.66;26.32
56176;BME280;63065;51.082;17.016;2023-04-06T09:59:48;100841.24;;;11.02;25.74
56176;BME280;63065;51.082;17.016;2023-04-06T10:02:03;100843.81;;;10.75;25.40
56176;BME280;63065;51.082;17.016;2023-04-06T10:04:32;100843.21;;;10.95;25.75
56176;BME280;63065;51.082;17.016;2023-04-06T10:06:52;100840.66;;;10.88;26.19
56176;BME280;63065;51.082;17.016;2023-04-06T10:09:17;100837.28;;;10.82;26.35
56176;BME280;63065;51.082;17.016;2023-04-06T10:11:43;100831.29;;;10.90;24.41
56176;BME280;63065;51.082;17.016;2023-04-06T10:14:09;100835.41;;;10.47;25.98
56176;BME280;63065;51.082;17.016;2023-04-06T10:16:34;100837.38;;;10.64;25.35
56176;BME280;63065;51.082;17.016;2023-04-06T10:19:06;100836.96;;;10.76;27.02
56176;BME280;63065;51.082;17.016;2023-04-06T10:21:26;100835.97;;;10.36;26.61
56176;BME280;63065;51.082;17.016;2023-04-06T10:23:53;100838.09;;;10.80;25.62
56176;BME280;63065;51.082;17.016;2023-04-06T10:26:20;100838.54;;;10.18;25.26
56176;BME280;63065;51.082;17.016;2023-04-06T10:28:43;100834.65;;;10.28;26.06
56176;BME280;63065;51.082;17.016;2023-04-06T10:31:07;100835.26;;;10.38;24.62
56176;BME280;63065;51.082;17.016;2023-04-06T10:33:33;100828.30;;;10.47;25.25
56176;BME280;63065;51.082;17.016;2023-04-06T10:38:33;100828.50;;;10.08;25.19
56176;BME280;63065;51.082;17.016;2023-04-06T10:40:49;100821.58;;;10.47;24.42
56176;BME280;63065;51.082;17.016;2023-04-06T10:43:19;100813.77;;;10.34;26.34
56176;BME280;63065;51.082;17.016;2023-04-06T10:45:41;100813.15;;;10.55;24.87
56176;BME280;63065;51.082;17.016;2023-04-06T10:48:12;100811.42;;;11.11;25.49
56176;BME280;63065;51.082;17.016;2023-04-06T10:50:33;100806.84;;;10.83;26.25
56176;BME280;63065;51.082;17.016;2023-04-06T10:52:59;100808.35;;;11.38;25.49
56176;BME280;63065;51.082;17.016;2023-04-06T10:55:24;100809.16;;;11.48;24.81
56176;BME280;63065;51.082;17.016;2023-04-06T10:57:49;100803.03;;;11.00;24.65
56176;BME280;63065;51.082;17.016;2023-04-06T11:00:15;100805.63;;;11.70;24.09
56176;BME280;63065;51.082;17.016;2023-04-06T11:02:39;100802.67;;;12.20;23.34
56176;BME280;63065;51.082;17.016;2023-04-06T11:05:06;100809.14;;;11.15;24.25
56176;BME280;63065;51.082;17.016;2023-04-06T11:07:31;100793.73;;;11.45;23.90
56176;BME280;63065;51.082;17.016;2023-04-06T11:09:56;100789.70;;;11.60;24.11
56176;BME280;63065;51.082;17.016;2023-04-06T11:12:23;100793.68;;;12.02;23.67
56176;BME280;63065;51.082;17.016;2023-04-06T11:14:53;100790.07;;;11.80;22.75
56176;BME280;63065;51.082;17.016;2023-04-06T11:17:13;100790.96;;;11.80;24.19
56176;BME280;63065;51.082;17.016;2023-04-06T11:19:38;100785.23;;;11.54;23.35
56176;BME280;63065;51.082;17.016;2023-04-06T11:22:07;100788.84;;;11.78;23.81
56176;BME280;63065;51.082;17.016;2023-04-06T11:24:29;100791.57;;;10.68;24.34
56176;BME280;63065;51.082;17.016;2023-04-06T11:26:56;100782.77;;;11.04;24.25
56176;BME280;63065;51.082;17.016;2023-04-06T11:29:21;100778.43;;;11.56;24.83
56176;BME280;63065;51.082;17.016;2023-04-06T11:31:47;100770.79;;;11.83;23.23
56176;BME280;63065;51.082;17.016;2023-04-06T11:34:12;100768.30;;;11.71;24.55
56176;BME280;63065;51.082;17.016;2023-04-06T11:36:39;100773.30;;;11.62;24.32
56176;BME280;63065;51.082;17.016;2023-04-06T11:39:03;100769.92;;;10.95;23.30
56176;BME280;63065;51.082;17.016;2023-04-06T11:41:28;100775.56;;;10.86;24.67
56176;BME280;63065;51.082;17.016;2023-04-06T11:43:55;100779.33;;;10.88;24.60
56176;BME280;63065;51.082;17.016;2023-04-06T11:46:18;100780.63;;;11.04;24.54
56176;BME280;63065;51.082;17.016;2023-04-06T11:48:46;100774.28;;;11.35;24.79
56176;BME280;63065;51.082;17.016;2023-04-06T11:51:09;100770.30;;;11.86;24.39
56176;BME280;63065;51.082;17.016;2023-04-06T11:53:43;100766.34;;;11.76;23.28
56176;BME280;63065;51.082;17.016;2023-04-06T11:56:01;100763.57;;;11.72;24.72
56176;BME280;63065;51.082;17.016;2023-04-06T11:58:26;100760.31;;;12.09;24.29
56176;BME280;63065;51.082;17.016;2023-04-06T12:00:52;100754.90;;;12.31;24.32
56176;BME280;63065;51.082;17.016;2023-04-06T12:03:17;100753.05;;;12.13;22.71
56176;BME280;63065;51.082;17.016;2023-04-06T12:05:43;100748.35;;;11.95;23.26
56176;BME280;63065;51.082;17.016;2023-04-06T12:08:08;100746.70;;;12.16;23.46
56176;BME280;63065;51.082;17.016;2023-04-06T12:10:33;100748.00;;;12.04;23.39
56176;BME280;63065;51.082;17.016;2023-04-06T12:12:59;100742.24;;;12.31;22.94
56176;BME280;63065;51.082;17.016;2023-04-06T12:15:24;100737.53;;;12.74;23.94
56176;BME280;63065;51.082;17.016;2023-04-06T12:17:50;100738.70;;;12.78;23.04
56176;BME280;63065;51.082;17.016;2023-04-06T12:20:16;100737.75;;;12.30;23.37
56176;BME280;63065;51.082;17.016;2023-04-06T12:22:41;100733.41;;;11.42;22.94
56176;BME280;63065;51.082;17.016;2023-04-06T12:25:08;100729.29;;;11.80;24.47
56176;BME280;63065;51.082;17.016;2023-04-06T12:27:32;100723.74;;;12.05;23.07
56176;BME280;63065;51.082;17.016;2023-04-06T12:29:57;100730.33;;;12.04;23.35
56176;BME280;63065;51.082;17.016;2023-04-06T12:32:23;100725.53;;;11.95;23.21
56176;BME280;63065;51.082;17.016;2023-04-06T12:34:50;100725.66;;;10.52;24.57
56176;BME280;63065;51.082;17.016;2023-04-06T12:37:15;100710.73;;;10.89;24.35
56176;BME280;63065;51.082;17.016;2023-04-06T12:39:40;100707.51;;;10.68;24.86
56176;BME280;63065;51.082;17.016;2023-04-06T12:42:05;100703.94;;;11.55;24.55
56176;BME280;63065;51.082;17.016;2023-04-06T12:44:30;100706.28;;;11.67;23.40